sensor_id;sensor_type;location;lat;lon;timestamp;temperature;humidity
20446;DHT22;10382;49.140;9.234;2023-02-28T00:02:27;1.80;99.90
20446;DHT22;10382;49.140;9.234;2023-02-28T00:04:54;1.70;99.90
20446;DHT22;10382;49.140;9.234;2023-02-28T00:07:26;1.70;99.90
20446;DHT22;10382;49.140;9.234;2023-02-28T00:09:53;1.70;99.90
20446;DHT22;10382;49.140;9.234;2023-02-28T00:12:20;1.70;99.90
20446;DHT22;10382;49.140;9.234;2023-02-28T00:14:47;1.80;99.90
20446;DHT22;10382;49.140;9.234;2023-02-28T00:17:14;1.80;99.90
20446;DHT22;10382;49.140;9.234;2023-02-28T00:19:43;1.80;99.90
20446;DHT22;10382;49.140;9.234;2023-02-28T00:22:10;1.80;99.90
20446;DHT22;10382;49.140;9.234;2023-02-28T00:24:37;1.80;99.90
20446;DHT22;10382;49.140;9.234;2023-02-28T00:27:03;1.70;99.90
20446;DHT22;10382;49.140;9.234;2023-02-28T00:29:31;1.60;99.90
20446;DHT22;10382;49.140;9.234;2023-02-28T00:31:57;1.50;99.90
20446;DHT22;10382;49.140;9.234;2023-02-28T00:34:24;1.50;99.90
20446;DHT22;10382;49.140;9.234;2023-02-28T00:36:53;1.60;99.90
20446;DHT22;10382;49.140;9.234;2023-02-28T00:39:19;1.60;99.90
20446;DHT22;10382;49.140;9.234;2023-02-28T00:41:46;1.60;99.90
20446;DHT22;10382;49.140;9.234;2023-02-28T00:44:13;1.70;99.90
20446;DHT22;10382;49.140;9.234;2023-02-28T00:46:40;1.70;99.90
20446;DHT22;10382;49.140;9.234;2023-02-28T00:49:07;1.70;99.90
20446;DHT22;10382;49.140;9.234;2023-02-28T00:51:34;1.80;99.90
20446;DHT22;10382;49.140;9.234;2023-02-28T00:54:02;1.80;99.90
20446;DHT22;10382;49.140;9.234;2023-02-28T00:56:29;1.80;99.90
20446;DHT22;10382;49.140;9.234;2023-02-28T00:58:56;1.80;99.90
20446;DHT22;10382;49.140;9.234;2023-02-28T01:01:23;1.70;99.90
20446;DHT22;10382;49.140;9.234;2023-02-28T01:03:49;1.70;99.90
20446;DHT22;10382;49.140;9.234;2023-02-28T01:06:17;1.70;99.90
20446;DHT22;10382;49.140;9.234;2023-02-28T01:08:44;1.70;99.90
20446;DHT22;10382;49.140;9.234;2023-02-28T01:11:15;1.70;99.90
20446;DHT22;10382;49.140;9.234;2023-02-28T01:13:42;1.70;99.90
20446;DHT22;10382;49.140;9.234;2023-02-28T01:16:09;1.70;99.90
20446;DHT22;10382;49.140;9.234;2023-02-28T01:18:36;1.70;99.90
20446;DHT22;10382;49.140;9.234;2023-02-28T01:21:04;1.70;99.90
20446;DHT22;10382;49.140;9.234;2023-02-28T01:23:31;1.70;99.90
20446;DHT22;10382;49.140;9.234;2023-02-28T01:26:04;1.70;99.90
20446;DHT22;10382;49.140;9.234;2023-02-28T01:28:32;1.30;99.90
20446;DHT22;10382;49.140;9.234;2023-02-28T01:30:59;1.30;99.90
20446;DHT22;10382;49.140;9.234;2023-02-28T01:33:26;1.10;99.90
20446;DHT22;10382;49.140;9.234;2023-02-28T01:35:58;1.00;99.90
20446;DHT22;10382;49.140;9.234;2023-02-28T01:38:25;1.00;99.90
20446;DHT22;10382;49.140;9.234;2023-02-28T01:40:52;0.90;99.90
20446;DHT22;10382;49.140;9.234;2023-02-28T01:43:21;0.90;99.90
20446;DHT22;10382;49.140;9.234;2023-02-28T01:45:51;1.00;99.90
20446;DHT22;10382;49.140;9.234;2023-02-28T01:48:19;1.10;99.90
20446;DHT22;10382;49.140;9.234;2023-02-28T01:50:48;1.20;99.90
20446;DHT22;10382;49.140;9.234;2023-02-28T01:53:17;1.20;99.90
20446;DHT22;10382;49.140;9.234;2023-02-28T01:55:48;1.30;99.90
20446;DHT22;10382;49.140;9.234;2023-02-28T01:58:16;1.30;99.90
20446;DHT22;10382;49.140;9.234;2023-02-28T02:00:43;1.40;99.90
20446;DHT22;10382;49.140;9.234;2023-02-28T02:03:13;1.40;99.90
20446;DHT22;10382;49.140;9.234;2023-02-28T02:05:41;1.40;99.90
20446;DHT22;10382;49.140;9.234;2023-02-28T02:08:17;1.40;99.90
20446;DHT22;10382;49.140;9.234;2023-02-28T02:10:46;1.40;99.90
20446;DHT22;10382;49.140;9.234;2023-02-28T02:13:34;1.40;99.90
20446;DHT22;10382;49.140;9.234;2023-02-28T02:16:10;1.40;99.90
20446;DHT22;10382;49.140;9.234;2023-02-28T02:18:44;1.30;99.90
20446;DHT22;10382;49.140;9.234;2023-02-28T02:21:37;1.30;99.90
20446;DHT22;10382;49.140;9.234;2023-02-28T02:24:33;1.30;99.90
20446;DHT22;10382;49.140;9.234;2023-02-28T02:27:19;1.30;99.90
20446;DHT22;10382;49.140;9.234;2023-02-28T02:35:37;1.30;99.90
20446;DHT22;10382;49.140;9.234;2023-02-28T02:38:10;1.20;99.90
20446;DHT22;10382;49.140;9.234;2023-02-28T02:40:45;1.10;99.90
20446;DHT22;10382;49.140;9.234;2023-02-28T02:43:17;1.00;99.90
20446;DHT22;10382;49.140;9.234;2023-02-28T02:45:49;1.00;99.90
20446;DHT22;10382;49.140;9.234;2023-02-28T02:48:19;0.90;99.90
20446;DHT22;10382;49.140;9.234;2023-02-28T02:50:54;0.90;99.90
20446;DHT22;10382;49.140;9.234;2023-02-28T02:53:26;0.90;99.90
20446;DHT22;10382;49.140;9.234;2023-02-28T02:56:15;0.90;99.90
20446;DHT22;10382;49.140;9.234;2023-02-28T02:58:44;0.90;99.90
20446;DHT22;10382;49.140;9.234;2023-02-28T03:01:15;0.90;99.90
20446;DHT22;10382;49.140;9.234;2023-02-28T03:03:55;0.90;99.90
20446;DHT22;10382;49.140;9.234;2023-02-28T03:06:23;1.00;99.90
20446;DHT22;10382;49.140;9.234;2023-02-28T03:08:50;1.00;99.90
20446;DHT22;10382;49.140;9.234;2023-02-28T03:11:17;0.90;99.90
20446;DHT22;10382;49.140;9.234;2023-02-28T03:13:58;0.90;99.90
20446;DHT22;10382;49.140;9.234;2023-02-28T03:16:33;0.90;99.90
20446;DHT22;10382;49.140;9.234;2023-02-28T03:22:06;1.00;99.90
20446;DHT22;10382;49.140;9.234;2023-02-28T03:24:45;1.10;99.90
20446;DHT22;10382;49.140;9.234;2023-02-28T03:27:20;1.10;99.90
20446;DHT22;10382;49.140;9.234;2023-02-28T03:29:51;1.10;99.90
20446;DHT22;10382;49.140;9.234;2023-02-28T03:32:24;1.20;99.90
20446;DHT22;10382;49.140;9.234;2023-02-28T03:35:01;1.30;99.90
20446;DHT22;10382;49.140;9.234;2023-02-28T03:37:34;1.20;99.90
20446;DHT22;10382;49.140;9.234;2023-02-28T03:40:04;1.20;99.90
20446;DHT22;10382;49.140;9.234;2023-02-28T03:42:36;1.30;99.90
20446;DHT22;10382;49.140;9.234;2023-02-28T03:45:05;1.40;99.90
20446;DHT22;10382;49.140;9.234;2023-02-28T03:47:38;1.50;99.90
20446;DHT22;10382;49.140;9.234;2023-02-28T03:50:09;1.60;99.90
20446;DHT22;10382;49.140;9.234;2023-02-28T03:52:42;1.60;99.90
20446;DHT22;10382;49.140;9.234;2023-02-28T03:55:13;1.60;99.90
20446;DHT22;10382;49.140;9.234;2023-02-28T03:57:46;1.60;99.90
20446;DHT22;10382;49.140;9.234;2023-02-28T04:00:19;1.70;99.90
20446;DHT22;10382;49.140;9.234;2023-02-28T04:02:47;1.70;99.90
20446;DHT22;10382;49.140;9.234;2023-02-28T04:05:18;1.80;99.90
20446;DHT22;10382;49.140;9.234;2023-02-28T04:07:46;1.70;99.90
20446;DHT22;10382;49.140;9.234;2023-02-28T04:10:15;1.70;99.90
20446;DHT22;10382;49.140;9.234;2023-02-28T04:12:42;1.70;99.90
20446;DHT22;10382;49.140;9.234;2023-02-28T04:15:09;1.70;99.90
20446;DHT22;10382;49.140;9.234;2023-02-28T04:17:37;1.60;99.90
20446;DHT22;10382;49.140;9.234;2023-02-28T04:20:05;1.60;99.90
20446;DHT22;10382;49.140;9.234;2023-02-28T04:22:35;1.60;99.90
20446;DHT22;10382;49.140;9.234;2023-02-28T04:25:04;1.70;99.90
20446;DHT22;10382;49.140;9.234;2023-02-28T04:27:32;1.70;99.90
20446;DHT22;10382;49.140;9.234;2023-02-28T04:29:59;1.70;99.90
20446;DHT22;10382;49.140;9.234;2023-02-28T04:32:25;1.60;99.90
20446;DHT22;10382;49.140;9.234;2023-02-28T04:34:52;1.60;99.90
20446;DHT22;10382;49.140;9.234;2023-02-28T04:37:19;1.60;99.90
20446;DHT22;10382;49.140;9.234;2023-02-28T04:39:46;1.70;99.90
20446;DHT22;10382;49.140;9.234;2023-02-28T04:42:15;1.70;99.90
20446;DHT22;10382;49.140;9.234;2023-02-28T04:44:42;1.60;99.90
20446;DHT22;10382;49.140;9.234;2023-02-28T04:47:08;1.60;99.90
20446;DHT22;10382;49.140;9.234;2023-02-28T04:49:35;1.50;99.90
20446;DHT22;10382;49.140;9.234;2023-02-28T04:52:02;1.40;99.90
20446;DHT22;10382;49.140;9.234;2023-02-28T04:54:29;1.30;99.90
20446;DHT22;10382;49.140;9.234;2023-02-28T04:56:56;1.30;99.90
20446;DHT22;10382;49.140;9.234;2023-02-28T04:59:24;1.30;99.90
20446;DHT22;10382;49.140;9.234;2023-02-28T05:01:51;1.30;99.90
20446;DHT22;10382;49.140;9.234;2023-02-28T05:04:18;1.30;99.90
20446;DHT22;10382;49.140;9.234;2023-02-28T05:06:45;1.30;99.90
20446;DHT22;10382;49.140;9.234;2023-02-28T05:09:12;1.30;99.90
20446;DHT22;10382;49.140;9.234;2023-02-28T05:11:39;1.10;99.90
20446;DHT22;10382;49.140;9.234;2023-02-28T05:14:09;1.20;99.90
20446;DHT22;10382;49.140;9.234;2023-02-28T05:16:38;1.20;99.90
20446;DHT22;10382;49.140;9.234;2023-02-28T05:19:05;1.30;99.90
20446;DHT22;10382;49.140;9.234;2023-02-28T05:21:33;1.20;99.90
20446;DHT22;10382;49.140;9.234;2023-02-28T05:24:03;1.10;99.90
20446;DHT22;10382;49.140;9.234;2023-02-28T05:26:33;1.20;99.90
20446;DHT22;10382;49.140;9.234;2023-02-28T05:29:00;1.10;99.90
20446;DHT22;10382;49.140;9.234;2023-02-28T05:31:27;0.90;99.90
20446;DHT22;10382;49.140;9.234;2023-02-28T05:33:55;0.90;99.90
20446;DHT22;10382;49.140;9.234;2023-02-28T05:36:22;0.80;99.90
20446;DHT22;10382;49.140;9.234;2023-02-28T05:38:49;0.70;99.90
20446;DHT22;10382;49.140;9.234;2023-02-28T05:41:18;0.80;99.90
20446;DHT22;10382;49.140;9.234;2023-02-28T05:43:45;0.80;99.90
20446;DHT22;10382;49.140;9.234;2023-02-28T05:46:13;0.80;99.90
20446;DHT22;10382;49.140;9.234;2023-02-28T05:48:41;0.60;99.90
20446;DHT22;10382;49.140;9.234;2023-02-28T05:51:09;0.50;99.90
20446;DHT22;10382;49.140;9.234;2023-02-28T05:53:36;0.50;99.90
20446;DHT22;10382;49.140;9.234;2023-02-28T05:56:04;0.50;99.90
20446;DHT22;10382;49.140;9.234;2023-02-28T05:58:31;0.40;99.90
20446;DHT22;10382;49.140;9.234;2023-02-28T06:00:59;0.50;99.90
20446;DHT22;10382;49.140;9.234;2023-02-28T06:03:27;0.60;99.90
20446;DHT22;10382;49.140;9.234;2023-02-28T06:05:54;0.70;99.90
20446;DHT22;10382;49.140;9.234;2023-02-28T06:08:22;0.80;99.90
20446;DHT22;10382;49.140;9.234;2023-02-28T06:10:49;0.80;99.90
20446;DHT22;10382;49.140;9.234;2023-02-28T06:13:15;0.80;99.90
20446;DHT22;10382;49.140;9.234;2023-02-28T06:15:42;0.80;99.90
20446;DHT22;10382;49.140;9.234;2023-02-28T06:18:09;0.60;99.90
20446;DHT22;10382;49.140;9.234;2023-02-28T06:20:36;0.70;99.90
20446;DHT22;10382;49.140;9.234;2023-02-28T06:23:03;0.70;99.90
20446;DHT22;10382;49.140;9.234;2023-02-28T06:25:31;0.60;99.90
20446;DHT22;10382;49.140;9.234;2023-02-28T06:27:58;0.60;99.90
20446;DHT22;10382;49.140;9.234;2023-02-28T06:30:25;0.40;99.90
20446;DHT22;10382;49.140;9.234;2023-02-28T06:32:53;0.40;99.90
20446;DHT22;10382;49.140;9.234;2023-02-28T06:35:20;0.40;99.90
20446;DHT22;10382;49.140;9.234;2023-02-28T06:37:47;0.50;99.90
20446;DHT22;10382;49.140;9.234;2023-02-28T06:40:14;0.50;99.90
20446;DHT22;10382;49.140;9.234;2023-02-28T06:42:43;0.50;99.90
20446;DHT22;10382;49.140;9.234;2023-02-28T06:45:11;0.60;99.90
20446;DHT22;10382;49.140;9.234;2023-02-28T06:47:39;0.60;99.90
20446;DHT22;10382;49.140;9.234;2023-02-28T06:50:09;0.70;99.90
20446;DHT22;10382;49.140;9.234;2023-02-28T06:52:36;0.70;99.90
20446;DHT22;10382;49.140;9.234;2023-02-28T06:55:03;0.90;99.90
20446;DHT22;10382;49.140;9.234;2023-02-28T06:57:32;0.90;99.90
20446;DHT22;10382;49.140;9.234;2023-02-28T07:00:03;0.90;99.90
20446;DHT22;10382;49.140;9.234;2023-02-28T07:02:33;1.00;99.90
20446;DHT22;10382;49.140;9.234;2023-02-28T07:05:00;1.20;99.90
20446;DHT22;10382;49.140;9.234;2023-02-28T07:07:26;1.40;99.90
20446;DHT22;10382;49.140;9.234;2023-02-28T07:09:53;1.80;99.90
20446;DHT22;10382;49.140;9.234;2023-02-28T07:12:20;2.20;99.90
20446;DHT22;10382;49.140;9.234;2023-02-28T07:14:47;2.70;99.90
20446;DHT22;10382;49.140;9.234;2023-02-28T07:17:15;3.30;99.90
20446;DHT22;10382;49.140;9.234;2023-02-28T07:19:42;3.80;99.90
20446;DHT22;10382;49.140;9.234;2023-02-28T07:22:09;4.30;99.90
20446;DHT22;10382;49.140;9.234;2023-02-28T07:24:36;4.80;99.90
20446;DHT22;10382;49.140;9.234;2023-02-28T07:27:03;5.20;99.90
20446;DHT22;10382;49.140;9.234;2023-02-28T07:29:30;5.70;99.90
20446;DHT22;10382;49.140;9.234;2023-02-28T07:31:57;6.10;99.90
20446;DHT22;10382;49.140;9.234;2023-02-28T07:34:25;6.40;99.90
20446;DHT22;10382;49.140;9.234;2023-02-28T07:36:53;6.40;99.90
20446;DHT22;10382;49.140;9.234;2023-02-28T07:39:20;6.40;99.90
20446;DHT22;10382;49.140;9.234;2023-02-28T07:41:47;6.30;99.90
20446;DHT22;10382;49.140;9.234;2023-02-28T07:44:14;6.10;99.90
20446;DHT22;10382;49.140;9.234;2023-02-28T07:46:41;5.80;99.90
20446;DHT22;10382;49.140;9.234;2023-02-28T07:49:08;5.80;99.90
20446;DHT22;10382;49.140;9.234;2023-02-28T07:51:36;6.10;99.90
20446;DHT22;10382;49.140;9.234;2023-02-28T07:54:03;6.40;99.60
20446;DHT22;10382;49.140;9.234;2023-02-28T07:56:30;6.80;99.50
20446;DHT22;10382;49.140;9.234;2023-02-28T07:58:57;7.10;98.00
20446;DHT22;10382;49.140;9.234;2023-02-28T08:01:24;7.30;96.50
20446;DHT22;10382;49.140;9.234;2023-02-28T08:03:50;7.30;95.70
20446;DHT22;10382;49.140;9.234;2023-02-28T08:06:19;7.50;95.60
20446;DHT22;10382;49.140;9.234;2023-02-28T08:08:48;6.90;95.00
20446;DHT22;10382;49.140;9.234;2023-02-28T08:11:17;7.00;96.20
20446;DHT22;10382;49.140;9.234;2023-02-28T08:13:44;7.20;95.90
20446;DHT22;10382;49.140;9.234;2023-02-28T08:16:12;7.50;94.60
20446;DHT22;10382;49.140;9.234;2023-02-28T08:18:42;7.10;93.20
20446;DHT22;10382;49.140;9.234;2023-02-28T08:21:10;7.50;95.10
20446;DHT22;10382;49.140;9.234;2023-02-28T08:23:37;7.90;92.60
20446;DHT22;10382;49.140;9.234;2023-02-28T08:26:06;7.80;92.80
20446;DHT22;10382;49.140;9.234;2023-02-28T08:28:33;7.10;92.00
20446;DHT22;10382;49.140;9.234;2023-02-28T08:31:01;6.60;93.80
20446;DHT22;10382;49.140;9.234;2023-02-28T08:33:33;6.00;95.20
20446;DHT22;10382;49.140;9.234;2023-02-28T08:36:00;5.20;97.60
20446;DHT22;10382;49.140;9.234;2023-02-28T08:38:27;5.30;98.00
20446;DHT22;10382;49.140;9.234;2023-02-28T08:40:57;5.50;98.50
20446;DHT22;10382;49.140;9.234;2023-02-28T08:43:27;5.90;98.60
20446;DHT22;10382;49.140;9.234;2023-02-28T08:45:54;6.50;96.90
20446;DHT22;10382;49.140;9.234;2023-02-28T08:48:22;7.00;95.70
20446;DHT22;10382;49.140;9.234;2023-02-28T08:50:55;7.70;93.50
20446;DHT22;10382;49.140;9.234;2023-02-28T08:53:22;7.50;91.80
20446;DHT22;10382;49.140;9.234;2023-02-28T08:55:56;7.70;92.30
20446;DHT22;10382;49.140;9.234;2023-02-28T08:58:23;7.40;92.80
20446;DHT22;10382;49.140;9.234;2023-02-28T09:00:52;7.70;92.60
20446;DHT22;10382;49.140;9.234;2023-02-28T09:03:19;8.10;90.60
20446;DHT22;10382;49.140;9.234;2023-02-28T09:05:53;8.50;90.50
20446;DHT22;10382;49.140;9.234;2023-02-28T09:08:20;9.20;89.40
20446;DHT22;10382;49.140;9.234;2023-02-28T09:10:47;10.20;83.20
20446;DHT22;10382;49.140;9.234;2023-02-28T09:13:14;10.50;78.30
20446;DHT22;10382;49.140;9.234;2023-02-28T09:15:41;11.10;74.30
20446;DHT22;10382;49.140;9.234;2023-02-28T09:18:09;11.70;72.70
20446;DHT22;10382;49.140;9.234;2023-02-28T09:20:37;12.40;65.90
20446;DHT22;10382;49.140;9.234;2023-02-28T09:23:05;12.50;62.30
20446;DHT22;10382;49.140;9.234;2023-02-28T09:25:32;12.60;60.50
20446;DHT22;10382;49.140;9.234;2023-02-28T09:27:59;12.30;60.00
20446;DHT22;10382;49.140;9.234;2023-02-28T09:30:26;11.70;60.10
20446;DHT22;10382;49.140;9.234;2023-02-28T09:32:54;12.00;59.90
20446;DHT22;10382;49.140;9.234;2023-02-28T09:35:23;11.70;58.80
20446;DHT22;10382;49.140;9.234;2023-02-28T09:37:52;11.10;59.50
20446;DHT22;10382;49.140;9.234;2023-02-28T09:40:22;10.90;60.10
20446;DHT22;10382;49.140;9.234;2023-02-28T09:42:52;9.80;63.00
20446;DHT22;10382;49.140;9.234;2023-02-28T09:45:35;9.30;64.90
20446;DHT22;10382;49.140;9.234;2023-02-28T09:48:06;9.20;66.60
20446;DHT22;10382;49.140;9.234;2023-02-28T09:50:40;10.10;64.80
20446;DHT22;10382;49.140;9.234;2023-02-28T09:53:15;11.00;63.00
20446;DHT22;10382;49.140;9.234;2023-02-28T09:55:49;11.80;59.90
20446;DHT22;10382;49.140;9.234;2023-02-28T09:58:20;12.00;57.90
20446;DHT22;10382;49.140;9.234;2023-02-28T10:00:56;11.60;58.50
20446;DHT22;10382;49.140;9.234;2023-02-28T10:03:31;10.80;60.00
20446;DHT22;10382;49.140;9.234;2023-02-28T10:06:07;10.50;59.60
20446;DHT22;10382;49.140;9.234;2023-02-28T10:08:38;10.10;60.40
20446;DHT22;10382;49.140;9.234;2023-02-28T10:11:12;9.70;61.20
20446;DHT22;10382;49.140;9.234;2023-02-28T10:13:49;9.40;64.20
20446;DHT22;10382;49.140;9.234;2023-02-28T10:16:24;9.70;64.40
20446;DHT22;10382;49.140;9.234;2023-02-28T10:18:54;10.40;61.40
20446;DHT22;10382;49.140;9.234;2023-02-28T10:21:28;10.30;59.20
20446;DHT22;10382;49.140;9.234;2023-02-28T10:24:03;10.10;60.60
20446;DHT22;10382;49.140;9.234;2023-02-28T10:26:32;8.90;62.90
20446;DHT22;10382;49.140;9.234;2023-02-28T10:29:00;8.00;65.70
20446;DHT22;10382;49.140;9.234;2023-02-28T10:31:28;7.20;69.80
20446;DHT22;10382;49.140;9.234;2023-02-28T10:33:55;7.10;70.80
20446;DHT22;10382;49.140;9.234;2023-02-28T10:36:23;7.30;71.90
20446;DHT22;10382;49.140;9.234;2023-02-28T10:38:50;7.60;71.90
20446;DHT22;10382;49.140;9.234;2023-02-28T10:41:27;8.00;71.40
20446;DHT22;10382;49.140;9.234;2023-02-28T10:44:14;8.10;71.50
20446;DHT22;10382;49.140;9.234;2023-02-28T10:46:42;8.50;70.70
20446;DHT22;10382;49.140;9.234;2023-02-28T10:49:14;8.80;70.00
20446;DHT22;10382;49.140;9.234;2023-02-28T10:51:45;8.70;68.00
20446;DHT22;10382;49.140;9.234;2023-02-28T10:54:16;9.10;69.00
20446;DHT22;10382;49.140;9.234;2023-02-28T10:56:45;10.10;66.30
20446;DHT22;10382;49.140;9.234;2023-02-28T10:59:28;10.50;63.20
20446;DHT22;10382;49.140;9.234;2023-02-28T11:01:56;9.80;64.10
20446;DHT22;10382;49.140;9.234;2023-02-28T11:04:34;9.20;65.90
20446;DHT22;10382;49.140;9.234;2023-02-28T11:07:06;8.40;66.60
20446;DHT22;10382;49.140;9.234;2023-02-28T11:09:46;7.80;68.30
20446;DHT22;10382;49.140;9.234;2023-02-28T11:12:21;7.40;71.30
20446;DHT22;10382;49.140;9.234;2023-02-28T11:14:50;7.60;72.60
20446;DHT22;10382;49.140;9.234;2023-02-28T11:17:21;7.90;71.80
20446;DHT22;10382;49.140;9.234;2023-02-28T11:19:51;7.90;72.20
20446;DHT22;10382;49.140;9.234;2023-02-28T11:22:22;7.70;71.50
20446;DHT22;10382;49.140;9.234;2023-02-28T11:24:51;7.60;72.50
20446;DHT22;10382;49.140;9.234;2023-02-28T11:27:46;8.10;73.50
20446;DHT22;10382;49.140;9.234;2023-02-28T11:30:33;7.80;72.00
20446;DHT22;10382;49.140;9.234;2023-02-28T11:33:01;7.70;73.60
20446;DHT22;10382;49.140;9.234;2023-02-28T11:35:31;8.40;73.00
20446;DHT22;10382;49.140;9.234;2023-02-28T11:38:01;8.90;71.90
20446;DHT22;10382;49.140;9.234;2023-02-28T11:40:36;9.10;71.00
20446;DHT22;10382;49.140;9.234;2023-02-28T11:43:11;8.90;70.50
20446;DHT22;10382;49.140;9.234;2023-02-28T11:45:58;8.80;70.60
20446;DHT22;10382;49.140;9.234;2023-02-28T11:48:33;9.30;69.80
20446;DHT22;10382;49.140;9.234;2023-02-28T11:51:11;9.80;67.70
20446;DHT22;10382;49.140;9.234;2023-02-28T11:54:07;10.10;66.50
20446;DHT22;10382;49.140;9.234;2023-02-28T11:56:38;10.80;64.90
20446;DHT22;10382;49.140;9.234;2023-02-28T11:59:24;11.50;63.80
20446;DHT22;10382;49.140;9.234;2023-02-28T12:02:08;12.40;61.60
20446;DHT22;10382;49.140;9.234;2023-02-28T12:04:51;12.20;57.40
20446;DHT22;10382;49.140;9.234;2023-02-28T12:07:26;11.30;58.90
20446;DHT22;10382;49.140;9.234;2023-02-28T12:10:04;12.10;58.60
20446;DHT22;10382;49.140;9.234;2023-02-28T12:12:39;12.40;56.60
20446;DHT22;10382;49.140;9.234;2023-02-28T12:15:28;11.40;55.70
20446;DHT22;10382;49.140;9.234;2023-02-28T12:18:09;10.20;57.80
20446;DHT22;10382;49.140;9.234;2023-02-28T12:20:46;9.80;62.20
20446;DHT22;10382;49.140;9.234;2023-02-28T12:23:26;10.50;60.90
20446;DHT22;10382;49.140;9.234;2023-02-28T12:26:07;11.50;60.70
20446;DHT22;10382;49.140;9.234;2023-02-28T12:28:41;13.00;57.30
20446;DHT22;10382;49.140;9.234;2023-02-28T12:31:13;13.30;55.90
20446;DHT22;10382;49.140;9.234;2023-02-28T12:33:43;13.20;55.20
20446;DHT22;10382;49.140;9.234;2023-02-28T12:36:14;13.60;54.20
20446;DHT22;10382;49.140;9.234;2023-02-28T12:38:47;13.00;54.60
20446;DHT22;10382;49.140;9.234;2023-02-28T12:41:18;13.80;54.80
20446;DHT22;10382;49.140;9.234;2023-02-28T12:43:50;14.40;52.30
20446;DHT22;10382;49.140;9.234;2023-02-28T12:46:22;14.40;51.50
20446;DHT22;10382;49.140;9.234;2023-02-28T12:48:53;14.30;51.70
20446;DHT22;10382;49.140;9.234;2023-02-28T12:51:22;14.60;52.10
20446;DHT22;10382;49.140;9.234;2023-02-28T12:53:58;15.20;51.40
20446;DHT22;10382;49.140;9.234;2023-02-28T12:56:35;15.70;50.50
20446;DHT22;10382;49.140;9.234;2023-02-28T12:59:13;15.90;50.10
20446;DHT22;10382;49.140;9.234;2023-02-28T13:02:33;16.30;48.70
20446;DHT22;10382;49.140;9.234;2023-02-28T13:05:19;16.40;49.20
20446;DHT22;10382;49.140;9.234;2023-02-28T13:10:47;17.30;47.20
20446;DHT22;10382;49.140;9.234;2023-02-28T13:13:19;16.40;46.60
20446;DHT22;10382;49.140;9.234;2023-02-28T13:16:05;16.80;47.70
20446;DHT22;10382;49.140;9.234;2023-02-28T13:18:35;17.30;45.40
20446;DHT22;10382;49.140;9.234;2023-02-28T13:21:06;17.20;45.80
20446;DHT22;10382;49.140;9.234;2023-02-28T13:23:57;16.30;45.00
20446;DHT22;10382;49.140;9.234;2023-02-28T13:29:31;15.00;47.00
20446;DHT22;10382;49.140;9.234;2023-02-28T13:32:31;15.00;47.00
20446;DHT22;10382;49.140;9.234;2023-02-28T13:38:39;14.40;47.90
20446;DHT22;10382;49.140;9.234;2023-02-28T13:41:41;14.90;47.90
20446;DHT22;10382;49.140;9.234;2023-02-28T13:44:09;15.80;46.60
20446;DHT22;10382;49.140;9.234;2023-02-28T13:49:43;16.50;45.20
20446;DHT22;10382;49.140;9.234;2023-02-28T13:52:17;16.10;46.20
20446;DHT22;10382;49.140;9.234;2023-02-28T13:57:58;15.60;45.20
20446;DHT22;10382;49.140;9.234;2023-02-28T14:00:37;15.90;45.80
20446;DHT22;10382;49.140;9.234;2023-02-28T14:03:27;16.20;45.00
20446;DHT22;10382;49.140;9.234;2023-02-28T14:06:22;16.80;45.60
20446;DHT22;10382;49.140;9.234;2023-02-28T14:08:55;17.40;44.90
20446;DHT22;10382;49.140;9.234;2023-02-28T14:11:27;17.90;44.00
20446;DHT22;10382;49.140;9.234;2023-02-28T14:13:55;17.60;43.60
20446;DHT22;10382;49.140;9.234;2023-02-28T14:16:23;17.30;43.40
20446;DHT22;10382;49.140;9.234;2023-02-28T14:18:56;17.10;43.60
20446;DHT22;10382;49.140;9.234;2023-02-28T14:21:26;17.10;44.30
20446;DHT22;10382;49.140;9.234;2023-02-28T14:27:11;16.40;43.90
20446;DHT22;10382;49.140;9.234;2023-02-28T14:30:04;15.70;44.50
20446;DHT22;10382;49.140;9.234;2023-02-28T14:32:44;14.90;44.80
20446;DHT22;10382;49.140;9.234;2023-02-28T14:35:26;15.40;45.70
20446;DHT22;10382;49.140;9.234;2023-02-28T14:37:56;16.20;44.80
20446;DHT22;10382;49.140;9.234;2023-02-28T14:40:27;16.70;44.20
20446;DHT22;10382;49.140;9.234;2023-02-28T14:42:56;16.90;43.40
20446;DHT22;10382;49.140;9.234;2023-02-28T14:45:27;16.80;43.40
20446;DHT22;10382;49.140;9.234;2023-02-28T14:47:56;17.00;43.40
20446;DHT22;10382;49.140;9.234;2023-02-28T14:50:29;16.70;42.80
20446;DHT22;10382;49.140;9.234;2023-02-28T14:53:00;16.30;43.30
20446;DHT22;10382;49.140;9.234;2023-02-28T14:55:30;15.40;43.30
20446;DHT22;10382;49.140;9.234;2023-02-28T14:57:59;15.60;44.20
20446;DHT22;10382;49.140;9.234;2023-02-28T15:00:30;15.40;44.20
20446;DHT22;10382;49.140;9.234;2023-02-28T15:02:59;15.00;45.00
20446;DHT22;10382;49.140;9.234;2023-02-28T15:05:29;14.90;44.90
20446;DHT22;10382;49.140;9.234;2023-02-28T15:08:06;14.80;45.40
20446;DHT22;10382;49.140;9.234;2023-02-28T15:10:34;14.20;45.20
20446;DHT22;10382;49.140;9.234;2023-02-28T15:13:03;14.10;46.20
20446;DHT22;10382;49.140;9.234;2023-02-28T15:15:41;13.90;46.00
20446;DHT22;10382;49.140;9.234;2023-02-28T15:18:18;13.10;46.00
20446;DHT22;10382;49.140;9.234;2023-02-28T15:20:50;12.20;47.50
20446;DHT22;10382;49.140;9.234;2023-02-28T15:23:19;12.10;48.00
20446;DHT22;10382;49.140;9.234;2023-02-28T15:25:47;12.00;48.30
20446;DHT22;10382;49.140;9.234;2023-02-28T15:28:18;12.00;49.40
20446;DHT22;10382;49.140;9.234;2023-02-28T15:30:57;12.10;48.70
20446;DHT22;10382;49.140;9.234;2023-02-28T15:33:27;12.10;48.80
20446;DHT22;10382;49.140;9.234;2023-02-28T15:36:14;12.10;48.90
20446;DHT22;10382;49.140;9.234;2023-02-28T15:38:43;12.00;48.10
20446;DHT22;10382;49.140;9.234;2023-02-28T15:41:24;11.70;48.50
20446;DHT22;10382;49.140;9.234;2023-02-28T15:44:16;11.30;48.90
20446;DHT22;10382;49.140;9.234;2023-02-28T15:46:53;11.10;49.50
20446;DHT22;10382;49.140;9.234;2023-02-28T15:49:22;11.00;49.70
20446;DHT22;10382;49.140;9.234;2023-02-28T15:51:51;10.80;50.00
20446;DHT22;10382;49.140;9.234;2023-02-28T15:54:21;10.60;50.10
20446;DHT22;10382;49.140;9.234;2023-02-28T15:56:54;10.70;50.60
20446;DHT22;10382;49.140;9.234;2023-02-28T15:59:25;10.60;50.50
20446;DHT22;10382;49.140;9.234;2023-02-28T16:02:13;10.40;50.60
20446;DHT22;10382;49.140;9.234;2023-02-28T16:04:55;10.00;51.30
20446;DHT22;10382;49.140;9.234;2023-02-28T16:07:24;9.40;53.10
20446;DHT22;10382;49.140;9.234;2023-02-28T16:09:51;9.30;53.50
20446;DHT22;10382;49.140;9.234;2023-02-28T16:12:19;9.20;53.50
20446;DHT22;10382;49.140;9.234;2023-02-28T16:14:48;8.80;53.80
20446;DHT22;10382;49.140;9.234;2023-02-28T16:17:21;8.70;54.50
20446;DHT22;10382;49.140;9.234;2023-02-28T16:19:48;8.60;55.00
20446;DHT22;10382;49.140;9.234;2023-02-28T16:22:15;8.70;55.10
20446;DHT22;10382;49.140;9.234;2023-02-28T16:24:43;8.80;55.20
20446;DHT22;10382;49.140;9.234;2023-02-28T16:27:16;8.60;55.00
20446;DHT22;10382;49.140;9.234;2023-02-28T16:29:44;8.50;55.30
20446;DHT22;10382;49.140;9.234;2023-02-28T16:32:12;8.30;55.70
20446;DHT22;10382;49.140;9.234;2023-02-28T16:34:40;8.30;56.00
20446;DHT22;10382;49.140;9.234;2023-02-28T16:37:12;8.00;56.20